Portada
METAR-TAF:

METAR-TAF

Aeroports :

Stigler, Oklahoma, Estats Units d'Amèrica

latitud: 35-17-17N, longitud: 095-05-38W, altitud: 183 m

Observació

L'informe es va fer fa 31 minuts, a les 18:55 UTC
Vent 8 kt del Sud-Est
Temperatura 33°C
Humitat 49%
Pressió 1024 hPa
Visibilitat: 12.9 km
Escasses núvols a una alçada de 4100 ft
Escasses núvols a una alçada de 5000 ft
Escasses núvols a una alçada de 5500 ft

METAR: KGZL 191855Z AUTO 13008KT 8SM FEW041 FEW050 FEW055 33/21 A3023 RMK AO2

Hora: 14:26 (19:26 UTC)


TAF: manca

Observacions i pronòstics meteorològics de més de 4000 aeroports (METAR i TAF).

Les estacions disponibles són els punts grocs i vermells al mapa.

Posi el ratolí al punt desitjat per veure el nom de l'estació.

Feu clic per veure les observacions i els pronòstics meteorològics.

Per canviar el mapa: feu clic els botons verds amb una creu de color negre per apropar; al botó verd amb un guió per allunyar la imatge; o en les fletxes verdes per a mapes adjacents.


METAR-TAF: